Time;durP1;ratioP1;P1;durP2;ratioP2;P2;SDS_P1;SDS_P2;PMS_P1;PMS_P2;Temp;Humidity;BMP_temperature;BMP_pressure;BME280_temperature;BME280_humidity;BME280_pressure;Samples;Min_cycle;Max_cycle;Signal;HPM_P1;HPM_P2
2022/08/13 00:00:59;;;;;;;4.03;3.80;;;19.30;99.90;;;;;;4848280;29;20248;-64
2022/08/13 00:03:30;;;;;;;3.80;3.53;;;19.20;99.90;;;;;;4849323;29;20226;-65
2022/08/13 00:06:51;;;;;;;4.03;3.73;;;19.10;99.90;;;;;;4849941;29;20218;-64
2022/08/13 00:09:23;;;;;;;3.80;3.50;;;19.10;99.90;;;;;;4854219;29;20814;-65
2022/08/13 00:15:02;;;;;;;4.10;3.70;;;19.00;99.90;;;;;;4846705;29;20207;-64
2022/08/13 00:17:41;;;;;;;4.27;3.93;;;18.90;99.90;;;;;;4848100;29;20195;-64
2022/08/13 00:20:33;;;;;;;3.90;3.70;;;18.90;99.90;;;;;;4853592;29;20665;-64
2022/08/13 00:23:06;;;;;;;4.13;3.83;;;18.80;99.90;;;;;;4851087;29;20211;-65
2022/08/13 00:25:51;;;;;;;5.10;3.60;;;18.80;99.90;;;;;;4858647;29;21142;-64
2022/08/13 00:28:29;;;;;;;5.13;3.40;;;18.70;99.90;;;;;;4852404;29;20203;-64
2022/08/13 00:30:59;;;;;;;4.13;3.83;;;18.70;99.90;;;;;;4849352;29;21263;-64
2022/08/13 00:33:28;;;;;;;4.10;3.77;;;18.60;99.90;;;;;;4853759;29;20800;-64
2022/08/13 00:36:17;;;;;;;3.73;3.23;;;18.60;99.90;;;;;;4849038;29;20614;-64
2022/08/13 00:39:03;;;;;;;4.00;3.70;;;18.60;99.90;;;;;;4850266;29;20559;-65
2022/08/13 00:41:40;;;;;;;4.97;3.73;;;18.50;99.90;;;;;;4849359;29;20382;-65
2022/08/13 00:44:31;;;;;;;5.63;3.87;;;18.50;99.90;;;;;;4846394;29;20211;-65
2022/08/13 00:49:49;;;;;;;5.60;4.00;;;18.40;99.90;;;;;;4850805;29;20878;-65
2022/08/13 00:52:30;;;;;;;4.30;4.00;;;18.30;99.90;;;;;;4851261;29;20203;-65
2022/08/13 00:55:00;;;;;;;4.20;4.00;;;18.30;99.90;;;;;;4849558;29;20203;-65
2022/08/13 00:57:29;;;;;;;6.00;3.90;;;18.20;99.90;;;;;;4849414;29;20219;-65
2022/08/13 01:00:06;;;;;;;4.70;3.87;;;18.20;99.90;;;;;;4851773;29;20196;-65
2022/08/13 01:02:40;;;;;;;4.17;3.70;;;18.20;99.90;;;;;;4850837;29;20285;-65
2022/08/13 01:05:24;;;;;;;4.33;4.13;;;18.10;99.90;;;;;;4848082;29;20271;-65
2022/08/13 01:07:59;;;;;;;4.43;4.00;;;18.00;99.90;;;;;;4845390;29;20206;-65
2022/08/13 01:10:28;;;;;;;4.57;4.13;;;18.00;99.90;;;;;;4847684;29;20385;-66
2022/08/13 01:12:57;;;;;;;4.30;4.00;;;17.90;99.90;;;;;;4847472;29;20212;-65
2022/08/13 01:15:28;;;;;;;4.13;3.93;;;17.90;99.90;;;;;;4846853;29;20200;-65
2022/08/13 01:18:04;;;;;;;4.47;4.07;;;17.90;99.90;;;;;;4841713;29;20297;-65
2022/08/13 01:20:38;;;;;;;4.80;4.40;;;17.80;99.90;;;;;;4853633;29;20209;-65
2022/08/13 01:23:13;;;;;;;4.23;3.83;;;17.80;99.90;;;;;;4862755;29;20212;-65
2022/08/13 01:25:44;;;;;;;4.50;4.10;;;17.70;99.90;;;;;;4851469;29;20215;-65
2022/08/13 01:28:23;;;;;;;6.73;4.27;;;17.70;99.90;;;;;;4850150;29;20723;-65
2022/08/13 01:30:53;;;;;;;5.53;3.80;;;17.60;99.90;;;;;;4852352;29;20206;-65
2022/08/13 01:33:23;;;;;;;9.33;4.17;;;17.60;99.90;;;;;;4856908;29;20206;-65
2022/08/13 01:35:53;;;;;;;6.10;4.63;;;17.50;99.90;;;;;;4853621;29;20236;-65
2022/08/13 01:38:25;;;;;;;4.47;4.13;;;17.50;99.90;;;;;;4856081;29;20215;-65
2022/08/13 01:40:54;;;;;;;6.23;3.83;;;17.40;99.90;;;;;;4845148;29;20197;-65
2022/08/13 01:43:28;;;;;;;4.77;4.47;;;17.40;99.90;;;;;;4850873;29;20647;-65
2022/08/13 01:45:58;;;;;;;4.10;3.80;;;17.40;99.90;;;;;;4845816;29;20231;-65
2022/08/13 01:51:30;;;;;;;7.97;4.53;;;17.30;99.90;;;;;;4853541;29;20208;-65
2022/08/13 01:54:02;;;;;;;5.30;4.10;;;17.30;99.90;;;;;;4850045;29;21613;-65
2022/08/13 01:56:50;;;;;;;4.83;4.27;;;17.20;99.90;;;;;;4858666;29;20228;-65
2022/08/13 01:59:18;;;;;;;4.53;4.20;;;17.10;99.90;;;;;;4862922;29;20212;-65
2022/08/13 02:01:47;;;;;;;4.80;4.17;;;17.10;99.90;;;;;;4845616;29;20204;-65
2022/08/13 02:04:16;;;;;;;4.23;4.00;;;17.00;99.90;;;;;;4852302;29;20264;-65
2022/08/13 02:06:51;;;;;;;4.37;4.10;;;17.00;99.90;;;;;;4862727;29;20266;-65
2022/08/13 02:09:24;;;;;;;4.47;4.17;;;17.00;99.90;;;;;;4855033;29;20664;-65
2022/08/13 02:12:14;;;;;;;4.67;4.33;;;16.90;99.90;;;;;;4851600;29;20883;-65
2022/08/13 02:15:04;;;;;;;9.20;5.03;;;16.90;99.90;;;;;;4851706;29;20203;-65
2022/08/13 02:17:38;;;;;;;14.47;5.23;;;16.80;99.90;;;;;;4856450;29;20208;-65
2022/08/13 02:20:27;;;;;;;10.10;4.70;;;16.70;99.90;;;;;;4853496;29;20215;-65
2022/08/13 02:22:56;;;;;;;8.17;5.03;;;16.60;99.90;;;;;;4836035;29;20191;-66
2022/08/13 02:25:29;;;;;;;11.40;5.37;;;16.60;99.90;;;;;;4862185;29;20200;-65
2022/08/13 02:27:59;;;;;;;8.10;4.73;;;16.60;99.90;;;;;;4848651;29;20212;-66
2022/08/13 02:30:30;;;;;;;11.57;4.73;;;16.60;99.90;;;;;;4847565;29;20209;-66
2022/08/13 02:33:00;;;;;;;12.07;4.60;;;16.50;99.90;;;;;;4848283;29;20211;-65
2022/08/13 02:35:29;;;;;;;7.97;4.60;;;16.50;99.90;;;;;;4856649;29;20260;-65
2022/08/13 02:38:15;;;;;;;7.40;4.67;;;16.50;99.90;;;;;;4848577;29;20197;-65
2022/08/13 02:43:47;;;;;;;13.77;5.30;;;16.40;99.90;;;;;;4858063;29;20194;-65
2022/08/13 02:46:26;;;;;;;10.00;4.40;;;16.40;99.90;;;;;;4856742;29;20689;-65
2022/08/13 02:48:59;;;;;;;9.80;5.10;;;16.40;99.90;;;;;;4851075;29;20195;-65
2022/08/13 02:51:29;;;;;;;16.60;4.63;;;16.30;99.90;;;;;;4850522;29;20256;-65
2022/08/13 02:54:20;;;;;;;6.67;4.23;;;16.30;99.90;;;;;;4847375;29;20707;-65
2022/08/13 02:56:49;;;;;;;9.03;4.63;;;16.20;99.90;;;;;;4849473;29;20741;-65
2022/08/13 02:59:18;;;;;;;7.07;4.20;;;16.20;99.90;;;;;;4850200;29;20800;-66
2022/08/13 03:02:07;;;;;;;6.37;4.80;;;16.10;99.90;;;;;;4845184;29;20220;-65
2022/08/13 03:04:45;;;;;;;5.87;5.00;;;16.10;99.90;;;;;;4850976;29;20203;-65
2022/08/13 03:07:13;;;;;;;8.80;5.33;;;16.00;99.90;;;;;;4846917;29;20223;-65
2022/08/13 03:09:43;;;;;;;4.90;4.57;;;16.00;99.90;;;;;;4847155;29;20875;-65
2022/08/13 03:12:21;;;;;;;8.30;4.70;;;16.00;99.90;;;;;;4854484;29;20207;-65
2022/08/13 03:15:00;;;;;;;5.30;4.80;;;16.00;99.90;;;;;;4848160;29;20208;-65
2022/08/13 03:17:30;;;;;;;5.47;5.00;;;15.90;99.90;;;;;;4851974;29;20196;-65
2022/08/13 03:19:58;;;;;;;5.13;4.80;;;15.90;99.90;;;;;;4848088;29;20214;-65
2022/08/13 03:22:27;;;;;;;6.77;5.17;;;15.80;99.90;;;;;;4853578;29;20211;-65
2022/08/13 03:24:55;;;;;;;5.30;4.80;;;15.70;99.90;;;;;;4854396;29;20755;-65
2022/08/13 03:27:26;;;;;;;5.57;5.00;;;15.70;99.90;;;;;;4846147;29;20345;-65
2022/08/13 03:30:00;;;;;;;5.27;4.77;;;15.60;99.90;;;;;;4849186;29;20211;-65
2022/08/13 03:32:40;;;;;;;5.30;4.77;;;15.60;99.90;;;;;;4847512;29;20286;-65
2022/08/13 03:35:12;;;;;;;6.10;5.50;;;15.50;99.90;;;;;;4844867;29;20233;-65
2022/08/13 03:37:46;;;;;;;5.90;5.30;;;15.50;99.90;;;;;;4852283;29;20292;-65
2022/08/13 03:40:17;;;;;;;4.63;4.33;;;15.50;99.90;;;;;;4846536;29;20201;-65
2022/08/13 03:42:52;;;;;;;5.93;5.20;;;15.50;99.90;;;;;;4853486;29;20206;-65
2022/08/13 03:45:24;;;;;;;7.13;5.53;;;15.50;99.90;;;;;;4850427;29;20196;-65
2022/08/13 03:47:55;;;;;;;11.23;5.00;;;15.60;99.90;;;;;;4849477;29;20299;-65
2022/08/13 03:50:24;;;;;;;9.53;4.80;;;15.60;99.90;;;;;;4852361;29;20322;-65
2022/08/13 03:52:53;;;;;;;5.30;4.63;;;15.60;99.90;;;;;;4849818;29;20207;-66
2022/08/13 03:55:23;;;;;;;8.20;5.03;;;15.60;99.90;;;;;;4845276;29;20200;-65
2022/08/13 03:57:56;;;;;;;5.50;5.00;;;15.60;99.90;;;;;;4847343;29;20188;-66
2022/08/13 04:00:42;;;;;;;4.63;4.43;;;15.50;99.90;;;;;;4846713;29;20215;-66
2022/08/13 04:03:20;;;;;;;5.20;4.80;;;15.40;99.90;;;;;;4845666;29;20242;-65
2022/08/13 04:05:50;;;;;;;5.63;5.03;;;15.40;99.90;;;;;;4850394;29;20732;-66
2022/08/13 04:08:27;;;;;;;9.13;4.97;;;15.40;99.90;;;;;;4845770;29;20218;-65
2022/08/13 04:10:57;;;;;;;5.67;5.17;;;15.40;99.90;;;;;;4851178;29;20226;-66
2022/08/13 04:13:28;;;;;;;8.33;5.27;;;15.30;99.90;;;;;;4847955;29;22573;-65
2022/08/13 04:16:21;;;;;;;5.80;5.20;;;15.30;99.90;;;;;;4853317;29;20200;-65
2022/08/13 04:18:58;;;;;;;11.97;5.37;;;15.30;99.90;;;;;;4847622;29;20202;-65
2022/08/13 04:21:31;;;;;;;5.87;4.90;;;15.20;99.90;;;;;;4849552;29;20290;-65
2022/08/13 04:24:03;;;;;;;6.57;5.47;;;15.20;99.90;;;;;;4837703;29;20698;-65
2022/08/13 04:26:33;;;;;;;5.43;5.03;;;15.20;99.90;;;;;;4851368;29;20355;-66
2022/08/13 04:29:05;;;;;;;5.77;5.00;;;15.10;99.90;;;;;;4849159;29;20222;-65
2022/08/13 04:31:36;;;;;;;6.70;5.40;;;15.10;99.90;;;;;;4852300;29;20333;-65
2022/08/13 04:34:20;;;;;;;6.67;5.40;;;15.10;99.90;;;;;;4845550;29;20191;-66
2022/08/13 04:37:10;;;;;;;6.07;5.17;;;15.10;99.90;;;;;;4854090;29;20206;-66
2022/08/13 04:39:52;;;;;;;6.23;5.27;;;15.10;99.90;;;;;;4844029;29;20230;-65
2022/08/13 04:42:52;;;;;;;6.10;5.33;;;15.10;99.90;;;;;;4850525;29;20572;-65
2022/08/13 04:45:23;;;;;;;5.73;5.23;;;15.10;99.90;;;;;;4854182;29;20277;-65
2022/08/13 04:47:53;;;;;;;7.20;5.57;;;15.10;99.90;;;;;;4832735;29;20844;-65
2022/08/13 04:50:23;;;;;;;12.53;5.80;;;15.10;99.90;;;;;;4851786;29;20263;-66
2022/08/13 04:52:55;;;;;;;7.97;6.00;;;15.10;99.90;;;;;;4857271;29;20686;-65
2022/08/13 04:55:25;;;;;;;5.77;5.27;;;15.10;99.90;;;;;;4852606;29;20235;-65
2022/08/13 04:58:13;;;;;;;8.83;5.43;;;15.10;99.90;;;;;;4854369;29;20207;-66
2022/08/13 05:00:46;;;;;;;6.07;5.57;;;15.20;99.90;;;;;;4859443;29;20233;-65
2022/08/13 05:03:22;;;;;;;8.83;6.20;;;15.20;99.90;;;;;;4850780;29;21191;-65
2022/08/13 05:05:54;;;;;;;10.23;5.33;;;15.20;99.90;;;;;;4850976;29;20204;-65
2022/08/13 05:08:23;;;;;;;9.00;5.23;;;15.10;99.90;;;;;;4849403;29;20218;-65
2022/08/13 05:10:54;;;;;;;5.90;5.50;;;15.10;99.90;;;;;;4850683;29;20248;-66
2022/08/13 05:13:29;;;;;;;5.80;5.30;;;15.10;99.90;;;;;;4831206;29;20199;-65
2022/08/13 05:16:14;;;;;;;5.67;5.20;;;15.20;99.90;;;;;;4847787;29;20267;-65
2022/08/13 05:18:48;;;;;;;5.97;5.37;;;15.20;99.90;;;;;;4848977;29;20936;-65
2022/08/13 05:21:16;;;;;;;6.00;5.43;;;15.20;99.90;;;;;;4851341;29;20215;-65
2022/08/13 05:23:50;;;;;;;6.23;5.63;;;15.30;99.90;;;;;;4850206;29;20260;-65
2022/08/13 05:26:39;;;;;;;5.57;5.17;;;15.40;99.90;;;;;;4846721;29;20259;-65
2022/08/13 05:29:27;;;;;;;6.70;6.00;;;15.50;99.90;;;;;;4853130;29;20238;-66
2022/08/13 05:31:58;;;;;;;6.53;5.70;;;15.70;99.90;;;;;;4852087;29;20210;-67
2022/08/13 05:34:28;;;;;;;6.47;5.50;;;15.80;99.90;;;;;;4840155;29;20303;-66
2022/08/13 05:36:59;;;;;;;5.97;5.47;;;16.00;99.90;;;;;;4850877;29;20294;-66
2022/08/13 05:39:48;;;;;;;5.83;5.43;;;16.10;99.90;;;;;;4852491;29;20215;-66
2022/08/13 05:42:19;;;;;;;5.80;5.30;;;16.30;99.90;;;;;;4847901;29;20214;-66
2022/08/13 05:44:55;;;;;;;6.87;6.17;;;16.50;99.90;;;;;;4850386;29;20215;-66
2022/08/13 05:47:25;;;;;;;6.30;5.60;;;16.70;99.90;;;;;;4850366;29;20242;-66
2022/08/13 05:49:54;;;;;;;5.93;5.43;;;17.00;99.90;;;;;;4854019;29;20196;-66
2022/08/13 05:52:32;;;;;;;7.90;5.70;;;17.10;99.90;;;;;;4847440;29;20205;-67
2022/08/13 05:55:12;;;;;;;6.93;5.50;;;17.40;99.90;;;;;;4858463;29;20219;-66
2022/08/13 05:58:00;;;;;;;6.07;5.50;;;17.60;99.90;;;;;;4847072;29;20368;-65
2022/08/13 06:03:38;;;;;;;9.13;5.30;;;18.00;99.90;;;;;;4855365;29;20319;-66
2022/08/13 06:06:28;;;;;;;8.17;5.40;;;18.30;99.90;;;;;;4856539;29;20626;-66
2022/08/13 06:09:04;;;;;;;7.63;5.03;;;18.50;99.90;;;;;;4851398;29;20215;-66
2022/08/13 06:11:40;;;;;;;11.33;5.27;;;18.70;99.90;;;;;;4850386;29;20202;-66
2022/08/13 06:14:31;;;;;;;8.07;5.40;;;18.90;99.90;;;;;;4850946;29;20203;-66
2022/08/13 06:17:02;;;;;;;9.00;5.53;;;19.10;99.90;;;;;;4852460;29;20302;-66
2022/08/13 06:19:35;;;;;;;8.87;4.90;;;19.30;99.90;;;;;;4850530;29;20284;-66
2022/08/13 06:22:05;;;;;;;16.27;6.00;;;19.50;99.90;;;;;;4844026;29;20206;-66
2022/08/13 06:24:41;;;;;;;7.40;5.50;;;19.70;99.90;;;;;;4853267;29;20207;-66
2022/08/13 06:27:21;;;;;;;7.93;4.90;;;19.90;99.90;;;;;;4849791;29;20844;-66
2022/08/13 06:30:12;;;;;;;10.63;4.93;;;20.10;99.90;;;;;;4844913;29;20563;-66
2022/08/13 06:33:01;;;;;;;10.50;5.13;;;20.30;99.90;;;;;;4840736;29;20203;-66
2022/08/13 06:35:52;;;;;;;7.60;5.00;;;20.50;99.90;;;;;;4849814;29;20576;-66
2022/08/13 06:38:27;;;;;;;7.93;4.90;;;20.70;99.90;;;;;;4854779;29;20696;-67
2022/08/13 06:40:59;;;;;;;8.17;5.40;;;20.80;99.90;;;;;;4850399;29;20212;-66
2022/08/13 06:43:30;;;;;;;15.93;5.10;;;21.20;99.90;;;;;;4859381;29;20203;-66
2022/08/13 06:46:22;;;;;;;6.77;4.87;;;21.40;99.90;;;;;;4853464;29;20300;-66
2022/08/13 06:48:58;;;;;;;10.40;4.50;;;21.70;99.90;;;;;;4852834;29;20210;-66
2022/08/13 06:51:33;;;;;;;7.97;4.63;;;22.00;99.90;;;;;;4854536;29;20632;-66
2022/08/13 06:54:08;;;;;;;5.90;4.37;;;22.40;99.90;;;;;;4849095;29;20392;-66
2022/08/13 06:56:57;;;;;;;4.57;4.27;;;22.60;99.90;;;;;;4851031;29;20874;-66
2022/08/13 06:59:50;;;;;;;5.37;4.20;;;22.80;99.90;;;;;;4854352;29;20241;-66
2022/08/13 07:02:42;;;;;;;5.47;3.93;;;23.00;99.90;;;;;;4848816;29;20226;-66
2022/08/13 07:05:12;;;;;;;4.87;4.07;;;23.20;99.90;;;;;;4849934;29;20207;-66
2022/08/13 07:07:50;;;;;;;8.70;3.73;;;23.50;99.90;;;;;;4847601;29;20195;-66
2022/08/13 07:10:18;;;;;;;5.67;3.57;;;23.70;99.90;;;;;;4848429;29;20226;-66
2022/08/13 07:12:47;;;;;;;5.97;3.67;;;23.90;99.90;;;;;;4849589;29;20211;-66
2022/08/13 07:15:16;;;;;;;4.33;3.50;;;24.10;99.90;;;;;;4852424;29;20650;-65
2022/08/13 07:18:07;;;;;;;4.43;3.63;;;24.30;99.90;;;;;;4850062;29;20226;-66
2022/08/13 07:20:37;;;;;;;5.90;3.80;;;24.40;99.90;;;;;;4856980;29;20194;-64
2022/08/13 07:23:07;;;;;;;6.33;3.40;;;24.60;99.90;;;;;;4857648;29;20193;-64
2022/08/13 07:25:57;;;;;;;6.03;3.43;;;24.80;99.90;;;;;;4863202;29;20204;-65
2022/08/13 07:28:28;;;;;;;3.60;3.30;;;25.10;99.90;;;;;;4854094;29;20197;-66
2022/08/13 07:31:19;;;;;;;2.90;2.70;;;25.50;99.90;;;;;;4849170;29;20267;-66
2022/08/13 07:33:53;;;;;;;3.20;2.90;;;25.60;99.90;;;;;;4838664;29;20581;-66
2022/08/13 07:36:30;;;;;;;4.50;2.80;;;25.60;99.90;;;;;;4851083;29;20305;-66
2022/08/13 07:39:03;;;;;;;6.10;3.60;;;25.70;99.90;;;;;;4855576;29;20254;-66
2022/08/13 07:41:41;;;;;;;5.60;3.33;;;26.00;99.90;;;;;;4847326;29;20241;-66
2022/08/13 07:44:32;;;;;;;10.20;3.17;;;26.20;99.90;;;;;;4863153;29;20202;-66
2022/08/13 07:47:22;;;;;;;3.97;2.87;;;26.40;99.90;;;;;;4863255;29;20235;-66
2022/08/13 07:49:56;;;;;;;3.53;2.90;;;26.70;99.90;;;;;;4852293;29;20245;-66
2022/08/13 07:52:29;;;;;;;7.27;2.83;;;26.80;99.90;;;;;;4850758;29;20605;-65
2022/08/13 07:55:01;;;;;;;2.60;2.40;;;27.00;99.90;;;;;;4848246;29;20203;-65
2022/08/13 07:57:31;;;;;;;2.50;2.40;;;27.10;99.90;;;;;;4844398;29;20199;-65
2022/08/13 08:00:08;;;;;;;3.30;2.63;;;27.30;99.90;;;;;;4847134;29;20187;-66
2022/08/13 08:02:55;;;;;;;3.90;2.40;;;27.50;99.90;;;;;;4855867;29;20312;-66
2022/08/13 08:05:25;;;;;;;2.40;2.20;;;27.70;99.90;;;;;;4857938;29;20326;-65
2022/08/13 08:08:06;;;;;;;2.30;2.05;;;27.70;99.90;;;;;;4847427;29;20539;-66
2022/08/13 08:10:39;;;;;;;3.30;2.47;;;28.10;99.90;;;;;;4845601;29;20713;-66
2022/08/13 08:13:10;;;;;;;2.97;2.40;;;28.10;99.90;;;;;;4857516;29;20207;-66
2022/08/13 08:15:43;;;;;;;7.03;2.30;;;28.40;99.90;;;;;;4855684;29;20207;-66
2022/08/13 08:18:33;;;;;;;2.30;2.20;;;28.70;99.90;;;;;;4851131;29;20218;-66
2022/08/13 08:21:23;;;;;;;2.17;2.08;;;29.00;99.90;;;;;;4866670;29;20209;-66
2022/08/13 08:24:14;;;;;;;2.88;2.10;;;29.40;99.90;;;;;;4849616;29;20230;-67
2022/08/13 08:27:00;;;;;;;1.90;1.80;;;29.60;99.90;;;;;;4847668;29;20207;-67
2022/08/13 08:29:31;;;;;;;2.55;1.95;;;29.60;99.90;;;;;;4858933;29;20417;-67
2022/08/13 08:32:16;;;;;;;6.00;1.98;;;29.80;99.90;;;;;;4853688;29;20574;-67
2022/08/13 08:34:51;;;;;;;3.85;1.90;;;29.90;99.90;;;;;;4846666;29;20208;-65
2022/08/13 08:43:27;;;;;;;3.90;1.77;;;30.60;99.40;;;;;;4846864;29;20210;-66
2022/08/13 08:46:02;;;;;;;1.85;1.80;;;30.80;98.90;;;;;;4844380;29;20223;-66
2022/08/13 08:48:42;;;;;;;1.88;1.77;;;31.00;99.50;;;;;;4847405;29;20203;-66
2022/08/13 08:51:15;;;;;;;2.15;1.70;;;31.00;98.30;;;;;;4842236;29;20216;-66
2022/08/13 08:53:49;;;;;;;2.47;1.63;;;31.20;98.60;;;;;;4843991;29;20210;-66
2022/08/13 08:56:38;;;;;;;2.10;1.90;;;31.10;97.90;;;;;;4844964;29;20644;-66
2022/08/13 08:59:23;;;;;;;1.90;1.65;;;31.30;97.40;;;;;;4844256;29;20207;-66
2022/08/13 09:01:55;;;;;;;4.28;1.50;;;31.10;97.70;;;;;;4858553;29;20200;-66
2022/08/13 09:04:29;;;;;;;4.07;1.48;;;31.50;96.40;;;;;;4842383;29;20641;-66
2022/08/13 09:07:19;;;;;;;1.95;1.40;;;31.90;97.30;;;;;;4845986;29;20197;-66
2022/08/13 09:09:51;;;;;;;1.85;1.75;;;32.30;96.40;;;;;;4845443;29;20758;-66
2022/08/13 09:12:23;;;;;;;12.00;2.22;;;32.40;96.00;;;;;;4846049;29;21038;-66
2022/08/13 09:14:57;;;;;;;1.60;1.50;;;32.50;95.90;;;;;;4856499;29;20280;-66
2022/08/13 09:17:28;;;;;;;1.60;1.50;;;32.60;95.20;;;;;;4845434;29;20223;-66
2022/08/13 09:20:12;;;;;;;1.40;1.40;;;32.70;94.20;;;;;;4842483;29;20210;-66
2022/08/13 09:22:44;;;;;;;4.38;1.30;;;32.90;94.80;;;;;;4845131;29;20267;-66
2022/08/13 09:25:26;;;;;;;1.63;1.20;;;33.20;94.60;;;;;;4853182;29;20495;-66
2022/08/13 09:27:57;;;;;;;8.13;1.40;;;33.50;93.50;;;;;;4844033;29;20859;-66
2022/08/13 09:30:45;;;;;;;3.35;1.38;;;33.60;92.90;;;;;;4850871;29;20245;-66
2022/08/13 09:33:17;;;;;;;4.80;1.35;;;33.60;92.20;;;;;;4844838;29;20596;-66
2022/08/13 09:36:09;;;;;;;1.50;1.40;;;33.50;91.50;;;;;;4830470;29;20242;-66
2022/08/13 09:38:50;;;;;;;2.08;1.10;;;33.90;91.60;;;;;;4846952;29;20791;-66
2022/08/13 09:41:25;;;;;;;1.60;1.50;;;33.90;91.40;;;;;;4852706;29;20665;-66
2022/08/13 09:43:57;;;;;;;1.60;1.50;;;34.00;90.20;;;;;;4859229;29;20202;-66
2022/08/13 09:46:31;;;;;;;2.72;1.20;;;34.50;90.30;;;;;;4850885;29;20211;-66
2022/08/13 09:49:00;;;;;;;2.97;1.10;;;34.70;90.70;;;;;;4844708;29;20679;-66
2022/08/13 09:51:35;;;;;;;2.17;1.30;;;34.90;89.70;;;;;;4846631;29;20311;-66
2022/08/13 09:54:23;;;;;;;2.50;1.20;;;35.20;87.10;;;;;;4836344;29;20211;-66
2022/08/13 09:56:57;;;;;;;1.27;1.27;;;34.90;86.30;;;;;;4846265;29;20223;-66
2022/08/13 09:59:28;;;;;;;3.45;1.20;;;34.70;85.80;;;;;;4846851;29;20694;-66
2022/08/13 10:02:09;;;;;;;1.33;1.20;;;34.90;84.30;;;;;;4854045;29;20311;-66
2022/08/13 10:05:20;;;;;;;3.50;1.17;;;35.40;85.30;;;;;;4850589;29;20718;-66
2022/08/13 10:08:07;;;;;;;1.10;1.10;;;35.70;84.10;;;;;;4841499;29;20227;-66
2022/08/13 10:10:36;;;;;;;3.00;1.33;;;35.90;81.70;;;;;;4842024;29;20211;-66
2022/08/13 10:13:05;;;;;;;0.90;0.90;;;35.80;82.90;;;;;;4847964;29;20234;-66
2022/08/13 10:15:33;;;;;;;1.17;1.02;;;36.20;83.30;;;;;;4851822;29;20204;-66
2022/08/13 10:18:04;;;;;;;3.65;1.30;;;36.60;78.70;;;;;;4856237;29;20281;-66
2022/08/13 10:20:39;;;;;;;2.45;1.30;;;36.20;80.30;;;;;;4855037;29;20200;-66
2022/08/13 10:23:10;;;;;;;1.73;1.30;;;36.20;79.70;;;;;;4847655;29;20641;-66
2022/08/13 10:25:39;;;;;;;3.92;1.50;;;36.60;78.80;;;;;;4854195;29;20845;-66
2022/08/13 10:28:22;;;;;;;1.73;1.20;;;36.70;78.90;;;;;;4862562;29;20774;-67
2022/08/13 10:31:00;;;;;;;0.80;0.80;;;36.70;77.20;;;;;;4870448;29;20199;-66
2022/08/13 10:33:53;;;;;;;1.27;1.00;;;37.40;75.50;;;;;;4867334;29;20202;-66
2022/08/13 10:36:25;;;;;;;1.23;0.95;;;37.50;77.00;;;;;;4854072;29;20754;-66
2022/08/13 10:39:01;;;;;;;1.00;1.00;;;38.10;76.40;;;;;;4859663;29;20736;-66
2022/08/13 10:41:32;;;;;;;0.98;0.98;;;38.10;73.90;;;;;;4854722;29;20537;-66
2022/08/13 10:44:13;;;;;;;2.70;1.10;;;38.30;71.90;;;;;;4853978;29;20204;-66
2022/08/13 10:46:45;;;;;;;1.73;0.98;;;38.30;72.40;;;;;;4852379;29;20938;-65
2022/08/13 10:49:22;;;;;;;0.98;0.93;;;38.30;71.40;;;;;;4852905;29;20978;-65
2022/08/13 10:51:50;;;;;;;1.20;1.02;;;38.50;71.00;;;;;;4853559;29;20220;-65
2022/08/13 10:54:33;;;;;;;0.93;0.93;;;38.10;70.00;;;;;;4853457;29;20191;-65
2022/08/13 10:57:05;;;;;;;1.00;1.00;;;37.90;71.30;;;;;;4850602;29;20730;-65
2022/08/13 10:59:34;;;;;;;2.03;0.90;;;37.60;69.70;;;;;;4853900;29;20225;-65
2022/08/13 11:02:06;;;;;;;1.25;1.15;;;37.50;71.60;;;;;;4853827;29;20195;-65
2022/08/13 11:04:37;;;;;;;1.10;1.10;;;37.50;70.20;;;;;;4851546;29;20433;-65
2022/08/13 11:07:20;;;;;;;1.20;1.20;;;37.60;69.80;;;;;;4852123;29;20350;-66
2022/08/13 11:09:49;;;;;;;1.52;1.13;;;37.60;70.60;;;;;;4855334;29;20188;-65
2022/08/13 11:12:19;;;;;;;1.10;1.10;;;37.60;70.20;;;;;;4842899;29;20564;-65
2022/08/13 11:14:55;;;;;;;1.00;1.00;;;37.30;68.90;;;;;;4854567;29;20294;-65
2022/08/13 11:17:23;;;;;;;1.15;1.13;;;37.00;68.80;;;;;;4859573;29;20286;-65
2022/08/13 11:20:17;;;;;;;2.72;1.17;;;37.10;68.60;;;;;;4850767;29;20208;-65
2022/08/13 11:22:53;;;;;;;1.65;0.95;;;37.30;71.00;;;;;;4842367;29;20211;-65
2022/08/13 11:25:22;;;;;;;0.90;0.90;;;37.50;68.40;;;;;;4851340;29;20199;-66
2022/08/13 11:28:13;;;;;;;1.25;1.15;;;37.20;69.60;;;;;;4852152;29;20203;-65
2022/08/13 11:30:47;;;;;;;1.08;1.08;;;36.80;66.90;;;;;;4864051;29;20629;-65
2022/08/13 11:33:17;;;;;;;1.25;1.25;;;36.90;67.50;;;;;;4863179;29;20210;-65
2022/08/13 11:35:48;;;;;;;1.38;1.27;;;36.90;67.00;;;;;;4854853;29;20235;-65
2022/08/13 11:38:19;;;;;;;0.93;0.93;;;36.80;68.30;;;;;;4852184;29;20221;-65
2022/08/13 11:40:49;;;;;;;0.95;0.95;;;36.60;68.30;;;;;;4856006;29;20570;-65
2022/08/13 11:43:21;;;;;;;1.63;0.82;;;36.40;66.40;;;;;;4855129;29;20210;-65
2022/08/13 11:45:50;;;;;;;1.10;1.08;;;36.10;65.00;;;;;;4855969;29;20219;-65
2022/08/13 11:48:19;;;;;;;1.23;1.13;;;35.90;65.60;;;;;;4850923;29;20293;-65
2022/08/13 11:51:05;;;;;;;1.10;1.10;;;36.10;66.10;;;;;;4853793;29;20243;-65
2022/08/13 11:53:33;;;;;;;2.42;1.10;;;35.60;67.20;;;;;;4857382;29;20197;-65
2022/08/13 11:56:22;;;;;;;1.55;1.10;;;35.40;66.70;;;;;;4856478;29;20292;-65
2022/08/13 11:58:52;;;;;;;1.00;1.00;;;35.30;68.00;;;;;;4856556;29;20229;-67
2022/08/13 12:01:25;;;;;;;1.27;1.00;;;35.60;67.90;;;;;;4855485;29;20602;-65
2022/08/13 12:04:12;;;;;;;1.15;1.13;;;35.70;67.00;;;;;;4862745;29;20760;-66
2022/08/13 12:06:52;;;;;;;1.10;1.10;;;36.00;67.50;;;;;;4851262;29;20231;-65
2022/08/13 12:09:21;;;;;;;3.45;1.25;;;35.50;66.90;;;;;;4849589;29;20219;-65
2022/08/13 12:12:09;;;;;;;1.20;1.20;;;35.60;66.50;;;;;;4843802;29;20632;-65
2022/08/13 12:14:50;;;;;;;1.70;1.13;;;35.50;69.20;;;;;;4854256;29;20258;-65
2022/08/13 12:17:19;;;;;;;3.03;0.98;;;35.60;68.20;;;;;;4853853;29;20206;-65
2022/08/13 12:20:08;;;;;;;1.42;1.23;;;35.40;65.90;;;;;;4851185;29;20228;-65
2022/08/13 12:22:50;;;;;;;1.40;1.30;;;35.40;67.70;;;;;;4850187;29;20198;-66
2022/08/13 12:25:21;;;;;;;1.15;1.15;;;35.20;67.10;;;;;;4846737;29;20223;-65
2022/08/13 12:28:15;;;;;;;1.88;1.00;;;35.20;68.10;;;;;;4858185;29;20836;-65
2022/08/13 12:30:53;;;;;;;1.10;1.10;;;35.20;68.80;;;;;;4853312;29;20203;-65
2022/08/13 12:33:22;;;;;;;1.10;1.10;;;35.20;66.30;;;;;;4864012;29;20244;-66
2022/08/13 12:35:51;;;;;;;1.75;1.23;;;34.90;67.10;;;;;;4853857;29;20238;-65
2022/08/13 12:38:26;;;;;;;1.10;1.10;;;34.90;70.50;;;;;;4870058;29;20210;-65
2022/08/13 12:40:58;;;;;;;2.85;1.20;;;35.00;67.50;;;;;;4859115;29;20821;-65
2022/08/13 12:43:46;;;;;;;1.98;1.10;;;34.90;71.40;;;;;;4870636;29;20597;-65
2022/08/13 12:46:35;;;;;;;1.25;1.20;;;34.80;67.90;;;;;;4849780;29;20671;-65
2022/08/13 12:49:05;;;;;;;2.80;1.27;;;34.60;67.80;;;;;;4857498;29;20298;-65
2022/08/13 12:51:42;;;;;;;4.78;1.13;;;34.40;67.10;;;;;;4857080;29;20216;-65
2022/08/13 12:54:25;;;;;;;1.73;1.27;;;34.20;69.40;;;;;;4871080;29;20307;-65
2022/08/13 12:57:14;;;;;;;1.30;1.20;;;33.80;68.40;;;;;;4855603;29;20600;-65
2022/08/13 13:00:05;;;;;;;1.85;1.10;;;33.70;71.90;;;;;;4862951;29;20196;-65
2022/08/13 13:02:40;;;;;;;1.05;1.05;;;33.80;68.10;;;;;;4864251;29;20202;-65
2022/08/13 13:05:15;;;;;;;5.25;1.35;;;34.00;70.00;;;;;;4857057;29;20217;-66
2022/08/13 13:07:48;;;;;;;1.38;1.20;;;34.00;68.90;;;;;;4844849;29;20223;-65
2022/08/13 13:10:39;;;;;;;1.20;1.20;;;33.90;69.20;;;;;;4863264;29;20207;-65
2022/08/13 13:13:15;;;;;;;2.60;1.25;;;33.70;70.10;;;;;;4867839;29;20250;-66
2022/08/13 13:16:05;;;;;;;1.38;1.30;;;33.70;67.80;;;;;;4853204;29;20205;-65
2022/08/13 13:18:53;;;;;;;2.33;1.27;;;33.50;67.60;;;;;;4859426;29;20743;-65
2022/08/13 13:21:28;;;;;;;3.45;1.30;;;33.60;70.10;;;;;;4855792;29;20215;-65
2022/08/13 13:24:07;;;;;;;1.65;1.23;;;33.80;67.20;;;;;;4852960;29;20209;-65
2022/08/13 13:26:48;;;;;;;1.20;1.20;;;33.70;69.20;;;;;;4863261;29;20202;-65
2022/08/13 13:29:32;;;;;;;2.70;1.08;;;34.00;67.10;;;;;;4865647;29;20563;-65
2022/08/13 13:32:06;;;;;;;1.17;0.90;;;34.20;69.10;;;;;;4862192;29;20230;-65
2022/08/13 13:34:55;;;;;;;0.80;0.80;;;34.30;66.00;;;;;;4855651;29;20505;-65
2022/08/13 13:37:27;;;;;;;4.38;1.13;;;34.60;69.90;;;;;;4851983;29;20221;-65
2022/08/13 13:40:16;;;;;;;1.10;1.10;;;34.80;69.40;;;;;;4870636;29;20511;-65
2022/08/13 13:42:46;;;;;;;1.35;1.20;;;34.90;68.90;;;;;;4851980;29;20278;-66
2022/08/13 13:45:36;;;;;;;1.08;1.08;;;34.60;68.60;;;;;;4854912;29;20207;-66
2022/08/13 13:48:21;;;;;;;1.27;1.25;;;34.40;66.80;;;;;;4856027;29;20291;-65
2022/08/13 13:50:52;;;;;;;0.98;0.98;;;34.10;68.10;;;;;;4866990;29;20223;-65
2022/08/13 13:53:21;;;;;;;3.35;1.00;;;34.10;67.60;;;;;;4853790;29;20215;-65
2022/08/13 13:56:08;;;;;;;2.25;1.23;;;34.10;68.00;;;;;;4864285;29;20210;-65